sensor_id;sensor_type;location;lat;lon;timestamp;pressure;altitude;pressure_sealevel;temperature;humidity
60087;BME280;45960;53.630;55.972;2022-07-21T00:00:18;99454.06;;;16.75;59.07
60087;BME280;45960;53.630;55.972;2022-07-21T00:01:19;99452.06;;;16.77;59.19
60087;BME280;45960;53.630;55.972;2022-07-21T00:02:21;99452.06;;;16.77;59.08
60087;BME280;45960;53.630;55.972;2022-07-21T00:03:22;99458.47;;;16.76;59.16
60087;BME280;45960;53.630;55.972;2022-07-21T00:04:23;99436.44;;;16.63;59.17
60087;BME280;45960;53.630;55.972;2022-07-21T00:05:25;99420.19;;;16.47;59.16
60087;BME280;45960;53.630;55.972;2022-07-21T00:06:27;99447.59;;;16.68;59.29
60087;BME280;45960;53.630;55.972;2022-07-21T00:07:28;99448.69;;;16.75;59.17
60087;BME280;45960;53.630;55.972;2022-07-21T00:08:29;99458.78;;;16.73;59.28
60087;BME280;45960;53.630;55.972;2022-07-21T00:09:31;99461.47;;;16.73;59.24
60087;BME280;45960;53.630;55.972;2022-07-21T00:10:32;99455.38;;;16.71;59.47
60087;BME280;45960;53.630;55.972;2022-07-21T00:11:33;99453.69;;;16.70;59.10
60087;BME280;45960;53.630;55.972;2022-07-21T00:12:35;99456.41;;;16.70;59.05
60087;BME280;45960;53.630;55.972;2022-07-21T00:13:36;99453.69;;;16.70;59.22
60087;BME280;45960;53.630;55.972;2022-07-21T00:14:37;99455.00;;;16.66;59.22
60087;BME280;45960;53.630;55.972;2022-07-21T00:15:38;99458.41;;;16.68;59.28
60087;BME280;45960;53.630;55.972;2022-07-21T00:16:41;99455.00;;;16.66;58.97
60087;BME280;45960;53.630;55.972;2022-07-21T00:17:43;99451.66;;;16.64;59.10
60087;BME280;45960;53.630;55.972;2022-07-21T00:18:44;99455.31;;;16.63;58.92
60087;BME280;45960;53.630;55.972;2022-07-21T00:19:45;99451.97;;;16.61;59.01
60087;BME280;45960;53.630;55.972;2022-07-21T00:20:47;99450.25;;;16.60;58.90
60087;BME280;45960;53.630;55.972;2022-07-21T00:21:49;99451.09;;;16.61;58.96
60087;BME280;45960;53.630;55.972;2022-07-21T00:22:50;99451.09;;;16.61;59.17
60087;BME280;45960;53.630;55.972;2022-07-21T00:23:51;99450.25;;;16.60;59.20
60087;BME280;45960;53.630;55.972;2022-07-21T00:24:53;99451.09;;;16.61;59.13
60087;BME280;45960;53.630;55.972;2022-07-21T00:25:54;99445.88;;;16.59;59.20
60087;BME280;45960;53.630;55.972;2022-07-21T00:26:55;99451.97;;;16.61;59.40
60087;BME280;45960;53.630;55.972;2022-07-21T00:27:57;99447.41;;;16.62;59.34
60087;BME280;45960;53.630;55.972;2022-07-21T00:28:58;99453.31;;;16.65;59.38
60087;BME280;45960;53.630;55.972;2022-07-21T00:30:00;99449.63;;;16.66;59.17
60087;BME280;45960;53.630;55.972;2022-07-21T00:31:04;99450.81;;;16.64;59.54
60087;BME280;45960;53.630;55.972;2022-07-21T00:32:05;99448.78;;;16.66;59.70
60087;BME280;45960;53.630;55.972;2022-07-21T00:33:06;99446.78;;;16.68;59.51
60087;BME280;45960;53.630;55.972;2022-07-21T00:34:08;99430.41;;;16.61;59.33
60087;BME280;45960;53.630;55.972;2022-07-21T00:35:10;99445.59;;;16.70;59.33
60087;BME280;45960;53.630;55.972;2022-07-21T00:36:11;99441.91;;;16.71;59.34
60087;BME280;45960;53.630;55.972;2022-07-21T00:37:13;99443.94;;;16.69;59.08
60087;BME280;45960;53.630;55.972;2022-07-21T00:38:14;99444.59;;;16.71;59.07
60087;BME280;45960;53.630;55.972;2022-07-21T00:39:15;99448.31;;;16.70;59.14
60087;BME280;45960;53.630;55.972;2022-07-21T00:40:17;99425.63;;;16.55;58.84
60087;BME280;45960;53.630;55.972;2022-07-21T00:41:18;99455.38;;;16.71;58.73
60087;BME280;45960;53.630;55.972;2022-07-21T00:42:21;99460.13;;;16.69;59.00
60087;BME280;45960;53.630;55.972;2022-07-21T00:43:23;99378.25;;;16.26;59.02
60087;BME280;45960;53.630;55.972;2022-07-21T00:44:26;99460.13;;;16.69;59.09
60087;BME280;45960;53.630;55.972;2022-07-21T00:45:27;99448.44;;;16.69;59.09
60087;BME280;45960;53.630;55.972;2022-07-21T00:46:29;99452.69;;;16.71;58.80
60087;BME280;45960;53.630;55.972;2022-07-21T00:47:31;99456.06;;;16.73;59.00
60087;BME280;45960;53.630;55.972;2022-07-21T00:48:33;99459.09;;;16.70;58.84
60087;BME280;45960;53.630;55.972;2022-07-21T00:49:34;99452.53;;;16.73;59.00
60087;BME280;45960;53.630;55.972;2022-07-21T00:50:35;99456.06;;;16.73;58.84
60087;BME280;45960;53.630;55.972;2022-07-21T00:51:36;99456.06;;;16.73;58.90
60087;BME280;45960;53.630;55.972;2022-07-21T00:52:38;99462.16;;;16.75;58.87
60087;BME280;45960;53.630;55.972;2022-07-21T00:53:40;99459.47;;;16.75;59.02
60087;BME280;45960;53.630;55.972;2022-07-21T00:54:41;99461.47;;;16.73;58.90
60087;BME280;45960;53.630;55.972;2022-07-21T00:55:44;99463.47;;;16.71;58.92
60087;BME280;45960;53.630;55.972;2022-07-21T00:56:45;99433.56;;;16.56;58.99
60087;BME280;45960;53.630;55.972;2022-07-21T00:57:48;99460.94;;;16.70;59.01
60087;BME280;45960;53.630;55.972;2022-07-21T00:58:50;99462.16;;;16.75;59.12
60087;BME280;45960;53.630;55.972;2022-07-21T00:59:51;99466.56;;;16.76;59.05
60087;BME280;45960;53.630;55.972;2022-07-21T01:00:53;99456.91;;;16.74;58.89
60087;BME280;45960;53.630;55.972;2022-07-21T01:01:54;99467.28;;;16.78;59.05
60087;BME280;45960;53.630;55.972;2022-07-21T01:02:57;99466.56;;;16.76;59.04
60087;BME280;45960;53.630;55.972;2022-07-21T01:03:58;99462.84;;;16.77;59.10
60087;BME280;45960;53.630;55.972;2022-07-21T01:04:59;99460.16;;;16.77;59.06
60087;BME280;45960;53.630;55.972;2022-07-21T01:06:01;99468.63;;;16.83;59.15
60087;BME280;45960;53.630;55.972;2022-07-21T01:07:05;99460.53;;;16.83;59.20
60087;BME280;45960;53.630;55.972;2022-07-21T01:08:06;99467.47;;;16.85;59.46
60087;BME280;45960;53.630;55.972;2022-07-21T01:09:07;99460.22;;;16.86;59.34
60087;BME280;45960;53.630;55.972;2022-07-21T01:10:10;99469.31;;;16.85;59.18
60087;BME280;45960;53.630;55.972;2022-07-21T01:11:12;99465.31;;;16.89;59.34
60087;BME280;45960;53.630;55.972;2022-07-21T01:12:13;99468.69;;;16.91;59.22
60087;BME280;45960;53.630;55.972;2022-07-21T01:13:15;99465.00;;;16.92;59.01
60087;BME280;45960;53.630;55.972;2022-07-21T01:14:16;99466.34;;;16.96;58.88
60087;BME280;45960;53.630;55.972;2022-07-21T01:15:19;99467.50;;;16.93;59.11
60087;BME280;45960;53.630;55.972;2022-07-21T01:16:21;99466.34;;;16.96;59.15
60087;BME280;45960;53.630;55.972;2022-07-21T01:17:22;99471.41;;;16.99;58.81
60087;BME280;45960;53.630;55.972;2022-07-21T01:18:24;99466.88;;;16.99;58.77
60087;BME280;45960;53.630;55.972;2022-07-21T01:19:25;99459.94;;;16.97;58.74
60087;BME280;45960;53.630;55.972;2022-07-21T01:20:31;99460.63;;;16.99;58.58
60087;BME280;45960;53.630;55.972;2022-07-21T01:21:38;99467.72;;;17.00;58.59
60087;BME280;45960;53.630;55.972;2022-07-21T01:22:43;99462.34;;;17.00;58.67
60087;BME280;45960;53.630;55.972;2022-07-21T01:23:44;99461.00;;;17.04;58.46
60087;BME280;45960;53.630;55.972;2022-07-21T01:24:46;99465.38;;;17.05;58.51
60087;BME280;45960;53.630;55.972;2022-07-21T01:25:50;99468.41;;;17.02;58.67
60087;BME280;45960;53.630;55.972;2022-07-21T01:26:52;99467.41;;;17.03;58.57
60087;BME280;45960;53.630;55.972;2022-07-21T01:27:54;99475.84;;;17.08;58.53
60087;BME280;45960;53.630;55.972;2022-07-21T01:28:56;99468.44;;;17.10;58.41
60087;BME280;45960;53.630;55.972;2022-07-21T01:29:58;99475.53;;;17.11;58.46
60087;BME280;45960;53.630;55.972;2022-07-21T01:30:59;99474.66;;;17.11;58.79
60087;BME280;45960;53.630;55.972;2022-07-21T01:32:02;99470.16;;;17.11;58.61
60087;BME280;45960;53.630;55.972;2022-07-21T01:33:05;99474.66;;;17.11;58.96
60087;BME280;45960;53.630;55.972;2022-07-21T01:34:06;99475.53;;;17.11;58.98
60087;BME280;45960;53.630;55.972;2022-07-21T01:35:12;99477.69;;;17.08;59.08
60087;BME280;45960;53.630;55.972;2022-07-21T01:36:13;99475.84;;;17.08;58.90
60087;BME280;45960;53.630;55.972;2022-07-21T01:37:14;99477.56;;;17.09;59.20
60087;BME280;45960;53.630;55.972;2022-07-21T01:38:16;99475.84;;;17.08;59.33
60087;BME280;45960;53.630;55.972;2022-07-21T01:39:35;99478.19;;;17.03;59.50
60087;BME280;45960;53.630;55.972;2022-07-21T01:40:58;99475.13;;;16.98;59.47
60087;BME280;45960;53.630;55.972;2022-07-21T01:42:18;99461.59;;;16.90;59.45
60087;BME280;45960;53.630;55.972;2022-07-21T01:43:19;99469.41;;;17.01;59.68
60087;BME280;45960;53.630;55.972;2022-07-21T01:44:20;99470.94;;;17.04;59.62
60087;BME280;45960;53.630;55.972;2022-07-21T01:45:22;99451.31;;;16.93;60.01
60087;BME280;45960;53.630;55.972;2022-07-21T01:46:25;99475.19;;;17.06;59.89
60087;BME280;45960;53.630;55.972;2022-07-21T01:47:27;99466.75;;;17.09;59.95
60087;BME280;45960;53.630;55.972;2022-07-21T01:48:28;99467.44;;;17.11;60.05
60087;BME280;45960;53.630;55.972;2022-07-21T01:49:29;99468.09;;;17.13;59.84
60087;BME280;45960;53.630;55.972;2022-07-21T01:50:31;99476.91;;;17.15;59.68
60087;BME280;45960;53.630;55.972;2022-07-21T01:51:33;99468.66;;;17.17;59.65
60087;BME280;45960;53.630;55.972;2022-07-21T01:52:34;99469.16;;;17.20;59.54
60087;BME280;45960;53.630;55.972;2022-07-21T01:53:36;99470.84;;;17.21;59.49
60087;BME280;45960;53.630;55.972;2022-07-21T01:54:37;99476.75;;;17.25;59.64
60087;BME280;45960;53.630;55.972;2022-07-21T01:55:39;99475.59;;;17.28;59.50
60087;BME280;45960;53.630;55.972;2022-07-21T01:56:40;99476.97;;;17.32;59.54
60087;BME280;45960;53.630;55.972;2022-07-21T01:57:41;99470.53;;;17.33;59.52
60087;BME280;45960;53.630;55.972;2022-07-21T01:58:43;99471.25;;;17.35;59.44
60087;BME280;45960;53.630;55.972;2022-07-21T01:59:44;99471.94;;;17.37;59.35
60087;BME280;45960;53.630;55.972;2022-07-21T02:00:45;99443.53;;;17.25;59.03
60087;BME280;45960;53.630;55.972;2022-07-21T02:01:47;99473.13;;;17.42;59.00
60087;BME280;45960;53.630;55.972;2022-07-21T02:02:48;99464.50;;;17.47;58.73
60087;BME280;45960;53.630;55.972;2022-07-21T02:03:49;99471.63;;;17.48;58.08
60087;BME280;45960;53.630;55.972;2022-07-21T02:04:50;99464.19;;;17.50;58.48
60087;BME280;45960;53.630;55.972;2022-07-21T02:05:52;99462.50;;;17.49;58.32
60087;BME280;45960;53.630;55.972;2022-07-21T02:06:54;99470.97;;;17.54;58.17
60087;BME280;45960;53.630;55.972;2022-07-21T02:07:55;99470.63;;;17.57;57.81
60087;BME280;45960;53.630;55.972;2022-07-21T02:08:56;99469.47;;;17.60;57.71
60087;BME280;45960;53.630;55.972;2022-07-21T02:09:57;99471.00;;;17.62;57.52
60087;BME280;45960;53.630;55.972;2022-07-21T02:10:59;99468.97;;;17.64;57.13
60087;BME280;45960;53.630;55.972;2022-07-21T02:12:00;99477.72;;;17.66;57.12
60087;BME280;45960;53.630;55.972;2022-07-21T02:13:01;99445.97;;;17.52;57.00
60087;BME280;45960;53.630;55.972;2022-07-21T02:14:04;99477.41;;;17.70;56.83
60087;BME280;45960;53.630;55.972;2022-07-21T02:15:06;99473.72;;;17.71;56.89
60087;BME280;45960;53.630;55.972;2022-07-21T02:16:08;99476.06;;;17.74;56.99
60087;BME280;45960;53.630;55.972;2022-07-21T02:17:09;99415.56;;;17.34;56.79
60087;BME280;45960;53.630;55.972;2022-07-21T02:18:10;99484.56;;;17.79;57.02
60087;BME280;45960;53.630;55.972;2022-07-21T02:19:12;99482.81;;;17.78;56.84
60087;BME280;45960;53.630;55.972;2022-07-21T02:20:13;99479.16;;;17.79;56.90
60087;BME280;45960;53.630;55.972;2022-07-21T02:21:14;99459.00;;;17.65;56.97
60087;BME280;45960;53.630;55.972;2022-07-21T02:22:15;99489.31;;;17.85;57.16
60087;BME280;45960;53.630;55.972;2022-07-21T02:23:17;99483.56;;;17.88;57.07
60087;BME280;45960;53.630;55.972;2022-07-21T02:24:18;99484.06;;;17.92;56.95
60087;BME280;45960;53.630;55.972;2022-07-21T02:25:20;99483.91;;;17.93;56.73
60087;BME280;45960;53.630;55.972;2022-07-21T02:26:21;99481.88;;;17.95;56.68
60087;BME280;45960;53.630;55.972;2022-07-21T02:27:22;99478.84;;;17.98;56.59
60087;BME280;45960;53.630;55.972;2022-07-21T02:28:24;99478.53;;;18.01;56.31
60087;BME280;45960;53.630;55.972;2022-07-21T02:29:25;99475.13;;;17.99;56.30
60087;BME280;45960;53.630;55.972;2022-07-21T02:30:27;99482.41;;;18.07;56.50
60087;BME280;45960;53.630;55.972;2022-07-21T02:31:28;99481.22;;;18.09;56.43
60087;BME280;45960;53.630;55.972;2022-07-21T02:32:29;99478.19;;;18.13;56.42
60087;BME280;45960;53.630;55.972;2022-07-21T02:33:31;99477.84;;;18.16;56.46
60087;BME280;45960;53.630;55.972;2022-07-21T02:34:32;99477.50;;;18.19;56.24
60087;BME280;45960;53.630;55.972;2022-07-21T02:35:34;99482.56;;;18.22;56.25
60087;BME280;45960;53.630;55.972;2022-07-21T02:36:35;99482.41;;;18.23;55.86
60087;BME280;45960;53.630;55.972;2022-07-21T02:37:37;99481.56;;;18.23;55.89
60087;BME280;45960;53.630;55.972;2022-07-21T02:38:39;99489.50;;;18.24;55.72
60087;BME280;45960;53.630;55.972;2022-07-21T02:39:40;99485.97;;;18.24;55.43
60087;BME280;45960;53.630;55.972;2022-07-21T02:40:41;99487.66;;;18.25;55.42
60087;BME280;45960;53.630;55.972;2022-07-21T02:41:43;99493.72;;;18.27;55.36
60087;BME280;45960;53.630;55.972;2022-07-21T02:42:44;99484.09;;;18.24;55.47
60087;BME280;45960;53.630;55.972;2022-07-21T02:43:45;99488.00;;;18.30;55.35
60087;BME280;45960;53.630;55.972;2022-07-21T02:44:46;99465.66;;;18.20;55.17
60087;BME280;45960;53.630;55.972;2022-07-21T02:45:47;99487.31;;;18.36;55.00
60087;BME280;45960;53.630;55.972;2022-07-21T02:46:48;99488.66;;;18.40;54.84
60087;BME280;45960;53.630;55.972;2022-07-21T02:47:55;99488.00;;;18.38;54.64
60087;BME280;45960;53.630;55.972;2022-07-21T02:48:56;99492.03;;;18.42;54.82
60087;BME280;45960;53.630;55.972;2022-07-21T02:49:57;99494.72;;;18.50;54.86
60087;BME280;45960;53.630;55.972;2022-07-21T02:50:58;99489.31;;;18.50;54.54
60087;BME280;45960;53.630;55.972;2022-07-21T02:51:59;99494.38;;;18.53;54.50
60087;BME280;45960;53.630;55.972;2022-07-21T02:53:03;99492.53;;;18.54;54.54
60087;BME280;45960;53.630;55.972;2022-07-21T02:54:05;99486.13;;;18.55;54.57
60087;BME280;45960;53.630;55.972;2022-07-21T02:55:06;99492.03;;;18.59;54.93
60087;BME280;45960;53.630;55.972;2022-07-21T02:56:07;99486.25;;;18.62;55.00
60087;BME280;45960;53.630;55.972;2022-07-21T02:57:08;99491.31;;;18.65;55.02
60087;BME280;45960;53.630;55.972;2022-07-21T02:58:16;99493.69;;;18.60;54.70
60087;BME280;45960;53.630;55.972;2022-07-21T02:59:17;99499.78;;;18.70;54.34
60087;BME280;45960;53.630;55.972;2022-07-21T03:00:19;99495.22;;;18.70;54.20
60087;BME280;45960;53.630;55.972;2022-07-21T03:01:20;99505.69;;;18.73;54.29
60087;BME280;45960;53.630;55.972;2022-07-21T03:02:21;99504.53;;;18.76;54.41
60087;BME280;45960;53.630;55.972;2022-07-21T03:03:25;99508.28;;;18.75;54.28
60087;BME280;45960;53.630;55.972;2022-07-21T03:04:27;99510.47;;;18.80;54.50
60087;BME280;45960;53.630;55.972;2022-07-21T03:05:28;99508.25;;;18.83;54.40
60087;BME280;45960;53.630;55.972;2022-07-21T03:06:30;99511.66;;;18.85;54.80
60087;BME280;45960;53.630;55.972;2022-07-21T03:07:31;99508.59;;;18.88;54.54
60087;BME280;45960;53.630;55.972;2022-07-21T03:08:32;99518.22;;;18.91;54.10
60087;BME280;45960;53.630;55.972;2022-07-21T03:09:34;99515.53;;;18.91;53.82
60087;BME280;45960;53.630;55.972;2022-07-21T03:10:36;99512.81;;;18.91;53.91
60087;BME280;45960;53.630;55.972;2022-07-21T03:11:37;99514.16;;;18.95;53.78
60087;BME280;45960;53.630;55.972;2022-07-21T03:12:39;99514.63;;;18.98;54.03
60087;BME280;45960;53.630;55.972;2022-07-21T03:13:40;99520.38;;;19.04;54.30
60087;BME280;45960;53.630;55.972;2022-07-21T03:14:41;99512.09;;;19.05;54.37
60087;BME280;45960;53.630;55.972;2022-07-21T03:15:42;99521.19;;;19.12;54.33
60087;BME280;45960;53.630;55.972;2022-07-21T03:16:43;99521.72;;;19.16;54.04
60087;BME280;45960;53.630;55.972;2022-07-21T03:17:45;99526.78;;;19.19;53.13
60087;BME280;45960;53.630;55.972;2022-07-21T03:18:47;99523.03;;;19.20;53.37
60087;BME280;45960;53.630;55.972;2022-07-21T03:19:48;99521.69;;;19.24;53.46
60087;BME280;45960;53.630;55.972;2022-07-21T03:20:49;99519.28;;;19.29;53.29
60087;BME280;45960;53.630;55.972;2022-07-21T03:21:50;99527.06;;;19.32;53.00
60087;BME280;45960;53.630;55.972;2022-07-21T03:22:51;99536.34;;;19.38;52.81
60087;BME280;45960;53.630;55.972;2022-07-21T03:23:52;99524.31;;;19.40;52.71
60087;BME280;45960;53.630;55.972;2022-07-21T03:24:54;99536.50;;;19.44;52.59
60087;BME280;45960;53.630;55.972;2022-07-21T03:25:55;99541.56;;;19.48;52.37
60087;BME280;45960;53.630;55.972;2022-07-21T03:26:56;99537.47;;;19.52;52.13
60087;BME280;45960;53.630;55.972;2022-07-21T03:27:58;99541.69;;;19.54;52.06
60087;BME280;45960;53.630;55.972;2022-07-21T03:28:59;99538.84;;;19.56;51.99
60087;BME280;45960;53.630;55.972;2022-07-21T03:30:00;99535.44;;;19.54;51.90
60087;BME280;45960;53.630;55.972;2022-07-21T03:31:01;99531.03;;;19.61;51.77
60087;BME280;45960;53.630;55.972;2022-07-21T03:32:02;99530.00;;;19.62;51.70
60087;BME280;45960;53.630;55.972;2022-07-21T03:33:04;99531.66;;;19.63;52.35
60087;BME280;45960;53.630;55.972;2022-07-21T03:34:05;99528.63;;;19.66;52.82
60087;BME280;45960;53.630;55.972;2022-07-21T03:35:08;99537.44;;;19.68;52.86
60087;BME280;45960;53.630;55.972;2022-07-21T03:36:09;99547.09;;;19.71;52.83
60087;BME280;45960;53.630;55.972;2022-07-21T03:37:12;99544.22;;;19.72;53.16
60087;BME280;45960;53.630;55.972;2022-07-21T03:38:13;99534.38;;;19.71;52.76
60087;BME280;45960;53.630;55.972;2022-07-21T03:39:14;99531.31;;;19.74;53.36
60087;BME280;45960;53.630;55.972;2022-07-21T03:40:18;99540.47;;;19.73;53.60
60087;BME280;45960;53.630;55.972;2022-07-21T03:41:20;99536.72;;;19.74;53.07
60087;BME280;45960;53.630;55.972;2022-07-21T03:42:22;99536.72;;;19.74;53.23
60087;BME280;45960;53.630;55.972;2022-07-21T03:43:23;99537.59;;;19.75;53.27
60087;BME280;45960;53.630;55.972;2022-07-21T03:44:24;99541.31;;;19.74;54.05
60087;BME280;45960;53.630;55.972;2022-07-21T03:45:26;99539.44;;;19.74;54.73
60087;BME280;45960;53.630;55.972;2022-07-21T03:46:30;99533.00;;;19.75;54.90
60087;BME280;45960;53.630;55.972;2022-07-21T03:47:31;99526.75;;;19.75;55.77
60087;BME280;45960;53.630;55.972;2022-07-21T03:48:32;99530.94;;;19.77;55.85
60087;BME280;45960;53.630;55.972;2022-07-21T03:49:33;99529.28;;;19.76;56.96
60087;BME280;45960;53.630;55.972;2022-07-21T03:50:36;99537.91;;;19.72;56.88
60087;BME280;45960;53.630;55.972;2022-07-21T03:51:38;99528.78;;;19.73;57.49
60087;BME280;45960;53.630;55.972;2022-07-21T03:52:39;99529.16;;;19.70;57.17
60087;BME280;45960;53.630;55.972;2022-07-21T03:53:41;99525.59;;;19.69;57.56
60087;BME280;45960;53.630;55.972;2022-07-21T03:54:42;99523.53;;;19.71;57.47
60087;BME280;45960;53.630;55.972;2022-07-21T03:55:43;99519.97;;;19.71;57.75
60087;BME280;45960;53.630;55.972;2022-07-21T03:56:44;99519.16;;;19.70;57.79
60087;BME280;45960;53.630;55.972;2022-07-21T03:57:50;99521.19;;;19.68;57.12
60087;BME280;45960;53.630;55.972;2022-07-21T03:58:52;99528.31;;;19.69;56.96
60087;BME280;45960;53.630;55.972;2022-07-21T03:59:53;99526.59;;;19.68;56.55
60087;BME280;45960;53.630;55.972;2022-07-21T04:00:54;99531.19;;;19.67;56.68
60087;BME280;45960;53.630;55.972;2022-07-21T04:01:55;99523.88;;;19.68;57.32
60087;BME280;45960;53.630;55.972;2022-07-21T04:02:56;99532.03;;;19.68;57.45
60087;BME280;45960;53.630;55.972;2022-07-21T04:03:58;99528.31;;;19.69;57.80
60087;BME280;45960;53.630;55.972;2022-07-21T04:04:59;99511.53;;;19.57;57.75
60087;BME280;45960;53.630;55.972;2022-07-21T04:06:00;99531.66;;;19.71;57.59
60087;BME280;45960;53.630;55.972;2022-07-21T04:07:02;99528.94;;;19.71;58.07
60087;BME280;45960;53.630;55.972;2022-07-21T04:08:03;99524.22;;;19.73;58.12
60087;BME280;45960;53.630;55.972;2022-07-21T04:09:05;99523.19;;;19.74;59.03
60087;BME280;45960;53.630;55.972;2022-07-21T04:10:07;99529.28;;;19.76;59.15
60087;BME280;45960;53.630;55.972;2022-07-21T04:11:09;99532.66;;;19.78;59.40
60087;BME280;45960;53.630;55.972;2022-07-21T04:12:10;99528.91;;;19.79;58.34
60087;BME280;45960;53.630;55.972;2022-07-21T04:13:12;99524.53;;;19.78;58.60
60087;BME280;45960;53.630;55.972;2022-07-21T04:14:14;99533.13;;;19.82;58.57
60087;BME280;45960;53.630;55.972;2022-07-21T04:15:16;99526.50;;;19.84;58.54
60087;BME280;45960;53.630;55.972;2022-07-21T04:16:17;99528.19;;;19.85;59.14
60087;BME280;45960;53.630;55.972;2022-07-21T04:17:18;99522.44;;;19.88;59.16
60087;BME280;45960;53.630;55.972;2022-07-21T04:18:19;99520.41;;;19.82;59.45
60087;BME280;45960;53.630;55.972;2022-07-21T04:19:21;99523.94;;;19.91;59.04
60087;BME280;45960;53.630;55.972;2022-07-21T04:20:22;99513.16;;;19.83;59.52
60087;BME280;45960;53.630;55.972;2022-07-21T04:21:23;99529.19;;;19.93;59.02
60087;BME280;45960;53.630;55.972;2022-07-21T04:22:24;99485.59;;;19.71;59.33
60087;BME280;45960;53.630;55.972;2022-07-21T04:23:25;99520.16;;;20.00;59.34
60087;BME280;45960;53.630;55.972;2022-07-21T04:24:27;99524.38;;;20.03;59.46
60087;BME280;45960;53.630;55.972;2022-07-21T04:25:29;99516.25;;;20.03;59.06
60087;BME280;45960;53.630;55.972;2022-07-21T04:26:30;99524.84;;;20.06;59.51
60087;BME280;45960;53.630;55.972;2022-07-21T04:27:31;99524.50;;;20.09;59.39
60087;BME280;45960;53.630;55.972;2022-07-21T04:28:33;99523.28;;;20.12;59.22
60087;BME280;45960;53.630;55.972;2022-07-21T04:29:34;99525.81;;;20.13;58.57
60087;BME280;45960;53.630;55.972;2022-07-21T04:30:35;99529.38;;;20.14;58.38
60087;BME280;45960;53.630;55.972;2022-07-21T04:31:36;99521.25;;;20.14;58.48
60087;BME280;45960;53.630;55.972;2022-07-21T04:32:37;99526.31;;;20.17;58.68
60087;BME280;45960;53.630;55.972;2022-07-21T04:33:38;99520.91;;;20.17;58.13
60087;BME280;45960;53.630;55.972;2022-07-21T04:34:40;99515.47;;;20.17;57.61
60087;BME280;45960;53.630;55.972;2022-07-21T04:35:41;99517.16;;;20.18;57.59
60087;BME280;45960;53.630;55.972;2022-07-21T04:36:42;99515.09;;;20.20;58.00
60087;BME280;45960;53.630;55.972;2022-07-21T04:37:44;99518.81;;;20.19;57.56
60087;BME280;45960;53.630;55.972;2022-07-21T04:38:45;99516.78;;;20.21;57.86
60087;BME280;45960;53.630;55.972;2022-07-21T04:39:46;99512.19;;;20.22;57.83
60087;BME280;45960;53.630;55.972;2022-07-21T04:40:47;99505.56;;;20.24;57.60
60087;BME280;45960;53.630;55.972;2022-07-21T04:41:48;99507.28;;;20.25;58.36
60087;BME280;45960;53.630;55.972;2022-07-21T04:42:49;99507.75;;;20.29;58.73
60087;BME280;45960;53.630;55.972;2022-07-21T04:43:50;99504.00;;;20.30;58.74
60087;BME280;45960;53.630;55.972;2022-07-21T04:44:52;99500.38;;;20.38;59.13
60087;BME280;45960;53.630;55.972;2022-07-21T04:45:53;99508.16;;;20.41;58.50
60087;BME280;45960;53.630;55.972;2022-07-21T04:46:54;99506.78;;;20.45;58.55
60087;BME280;45960;53.630;55.972;2022-07-21T04:47:55;99497.13;;;20.42;58.31
60087;BME280;45960;53.630;55.972;2022-07-21T04:48:56;99513.84;;;20.54;58.47
60087;BME280;45960;53.630;55.972;2022-07-21T04:49:58;99507.00;;;20.58;58.70
60087;BME280;45960;53.630;55.972;2022-07-21T04:50:59;99500.19;;;20.62;58.78
60087;BME280;45960;53.630;55.972;2022-07-21T04:52:00;99504.22;;;20.66;57.76
60087;BME280;45960;53.630;55.972;2022-07-21T04:53:01;99468.06;;;20.51;57.72
60087;BME280;45960;53.630;55.972;2022-07-21T04:54:02;99496.00;;;20.74;57.57
60087;BME280;45960;53.630;55.972;2022-07-21T04:55:04;99436.22;;;20.45;57.46
60087;BME280;45960;53.630;55.972;2022-07-21T04:56:06;99491.53;;;20.82;57.41
60087;BME280;45960;53.630;55.972;2022-07-21T04:57:07;99478.25;;;20.87;57.02
60087;BME280;45960;53.630;55.972;2022-07-21T04:58:08;99486.66;;;20.92;56.84
60087;BME280;45960;53.630;55.972;2022-07-21T04:59:10;99475.44;;;20.95;57.26
60087;BME280;45960;53.630;55.972;2022-07-21T05:00:15;99474.41;;;20.96;57.24
60087;BME280;45960;53.630;55.972;2022-07-21T05:01:16;99468.88;;;21.04;57.30
60087;BME280;45960;53.630;55.972;2022-07-21T05:02:18;99472.91;;;21.08;57.85
60087;BME280;45960;53.630;55.972;2022-07-21T05:03:20;99475.91;;;21.13;57.06
60087;BME280;45960;53.630;55.972;2022-07-21T05:04:21;99476.56;;;21.15;57.08
60087;BME280;45960;53.630;55.972;2022-07-21T05:05:22;99479.56;;;21.20;56.92
60087;BME280;45960;53.630;55.972;2022-07-21T05:06:24;99481.50;;;21.27;56.73
60087;BME280;45960;53.630;55.972;2022-07-21T05:07:25;99478.41;;;21.30;56.46
60087;BME280;45960;53.630;55.972;2022-07-21T05:08:26;99464.84;;;21.30;56.09
60087;BME280;45960;53.630;55.972;2022-07-21T05:09:28;99477.31;;;21.39;55.91
60087;BME280;45960;53.630;55.972;2022-07-21T05:10:29;99478.63;;;21.43;55.80
60087;BME280;45960;53.630;55.972;2022-07-21T05:11:30;99479.91;;;21.47;54.74
60087;BME280;45960;53.630;55.972;2022-07-21T05:12:31;99480.38;;;21.51;54.34
60087;BME280;45960;53.630;55.972;2022-07-21T05:13:33;99477.47;;;21.52;53.92
60087;BME280;45960;53.630;55.972;2022-07-21T05:14:34;99487.97;;;21.55;53.61
60087;BME280;45960;53.630;55.972;2022-07-21T05:15:35;99478.41;;;21.59;52.93
60087;BME280;45960;53.630;55.972;2022-07-21T05:16:36;99462.84;;;21.53;52.83
60087;BME280;45960;53.630;55.972;2022-07-21T05:17:37;99475.03;;;21.57;52.96
60087;BME280;45960;53.630;55.972;2022-07-21T05:18:39;99478.47;;;21.66;52.67
60087;BME280;45960;53.630;55.972;2022-07-21T05:19:40;99483.59;;;21.76;52.40
60087;BME280;45960;53.630;55.972;2022-07-21T05:20:43;99476.47;;;21.75;52.31
60087;BME280;45960;53.630;55.972;2022-07-21T05:21:44;99485.56;;;21.82;52.69
60087;BME280;45960;53.630;55.972;2022-07-21T05:22:46;99482.47;;;21.85;52.74